Terminal Aerodrome Forecast
Issued by NWS Quad Cities IA IL

Home | Current Version | Previous Version | Graphics & Text | Print | Product List | Glossary On
Versions: 1 2 3 4 5 6 7 8 9 10 11 12 13 14 15 16 17 18 19
511
FTUS43 KDVN 280547
TAFDBQ
TAF
KDBQ 280547Z 2806/0106 12009KT P6SM -RA OVC050
     FM281100 14008KT 3SM -RADZ OVC008
     FM281400 16011KT 4SM -SHRA VCTS OVC012CB
     FM281700 18010KT 5SM BR OVC015
     FM282100 22012KT 4SM -SHRA VCTS OVC015CB
     FM010100 30007KT P6SM BKN015=

USA.gov is the U.S. government's official web portal to all federal, state and local government web resources and services.